sensor_id;sensor_type;location;lat;lon;timestamp;temperature;humidity
68387;DHT22;55338;43.062;25.624;2023-03-14T00:02:20;2.90;99.90
68387;DHT22;55338;43.062;25.624;2023-03-14T00:04:46;2.80;99.90
68387;DHT22;55338;43.062;25.624;2023-03-14T00:07:12;2.80;99.90
68387;DHT22;55338;43.062;25.624;2023-03-14T00:09:39;2.70;99.90
68387;DHT22;55338;43.062;25.624;2023-03-14T00:12:05;2.50;99.90
68387;DHT22;55338;43.062;25.624;2023-03-14T00:14:33;2.70;99.90
68387;DHT22;55338;43.062;25.624;2023-03-14T00:16:59;2.60;99.90
68387;DHT22;55338;43.062;25.624;2023-03-14T00:19:24;2.60;99.90
68387;DHT22;55338;43.062;25.624;2023-03-14T00:21:50;2.70;99.90
68387;DHT22;55338;43.062;25.624;2023-03-14T00:24:16;2.50;99.90
68387;DHT22;55338;43.062;25.624;2023-03-14T00:26:41;2.50;99.90
68387;DHT22;55338;43.062;25.624;2023-03-14T00:29:07;2.40;99.90
68387;DHT22;55338;43.062;25.624;2023-03-14T00:31:33;2.30;99.90
68387;DHT22;55338;43.062;25.624;2023-03-14T00:34:01;2.20;99.90
68387;DHT22;55338;43.062;25.624;2023-03-14T00:36:27;2.20;99.90
68387;DHT22;55338;43.062;25.624;2023-03-14T00:38:53;2.10;99.90
68387;DHT22;55338;43.062;25.624;2023-03-14T00:41:21;2.20;99.90
68387;DHT22;55338;43.062;25.624;2023-03-14T00:43:48;2.20;99.90
68387;DHT22;55338;43.062;25.624;2023-03-14T00:46:14;2.20;99.90
68387;DHT22;55338;43.062;25.624;2023-03-14T00:48:40;2.20;99.90
68387;DHT22;55338;43.062;25.624;2023-03-14T00:51:07;2.30;99.90
68387;DHT22;55338;43.062;25.624;2023-03-14T00:53:37;2.20;99.90
68387;DHT22;55338;43.062;25.624;2023-03-14T00:56:05;2.30;99.90
68387;DHT22;55338;43.062;25.624;2023-03-14T00:58:32;2.40;99.90
68387;DHT22;55338;43.062;25.624;2023-03-14T01:00:57;2.50;99.90
68387;DHT22;55338;43.062;25.624;2023-03-14T01:03:23;2.40;99.90
68387;DHT22;55338;43.062;25.624;2023-03-14T01:05:49;2.40;99.90
68387;DHT22;55338;43.062;25.624;2023-03-14T01:08:15;2.30;99.90
68387;DHT22;55338;43.062;25.624;2023-03-14T01:10:42;2.20;99.90
68387;DHT22;55338;43.062;25.624;2023-03-14T01:13:08;2.20;99.90
68387;DHT22;55338;43.062;25.624;2023-03-14T01:15:35;2.20;99.90
68387;DHT22;55338;43.062;25.624;2023-03-14T01:18:01;2.10;99.90
68387;DHT22;55338;43.062;25.624;2023-03-14T01:20:27;2.00;99.90
68387;DHT22;55338;43.062;25.624;2023-03-14T01:22:53;2.00;99.90
68387;DHT22;55338;43.062;25.624;2023-03-14T01:25:19;2.00;99.90
68387;DHT22;55338;43.062;25.624;2023-03-14T01:27:45;1.90;99.90
68387;DHT22;55338;43.062;25.624;2023-03-14T01:30:12;1.90;99.90
68387;DHT22;55338;43.062;25.624;2023-03-14T01:32:38;1.90;99.90
68387;DHT22;55338;43.062;25.624;2023-03-14T01:35:04;1.90;99.90
68387;DHT22;55338;43.062;25.624;2023-03-14T01:37:30;1.90;99.90
68387;DHT22;55338;43.062;25.624;2023-03-14T01:39:56;1.90;99.90
68387;DHT22;55338;43.062;25.624;2023-03-14T01:42:21;1.90;99.90
68387;DHT22;55338;43.062;25.624;2023-03-14T01:44:54;1.90;99.90
68387;DHT22;55338;43.062;25.624;2023-03-14T01:47:20;1.90;99.90
68387;DHT22;55338;43.062;25.624;2023-03-14T01:50:09;1.80;99.90
68387;DHT22;55338;43.062;25.624;2023-03-14T01:52:36;1.90;99.90
68387;DHT22;55338;43.062;25.624;2023-03-14T01:55:09;1.90;99.90
68387;DHT22;55338;43.062;25.624;2023-03-14T01:57:50;1.90;99.90
68387;DHT22;55338;43.062;25.624;2023-03-14T02:00:20;1.80;99.90
68387;DHT22;55338;43.062;25.624;2023-03-14T02:02:52;1.70;99.90
68387;DHT22;55338;43.062;25.624;2023-03-14T02:05:25;1.70;99.90
68387;DHT22;55338;43.062;25.624;2023-03-14T02:07:54;1.60;99.90
68387;DHT22;55338;43.062;25.624;2023-03-14T02:10:31;1.60;99.90
68387;DHT22;55338;43.062;25.624;2023-03-14T02:13:00;1.60;99.90
68387;DHT22;55338;43.062;25.624;2023-03-14T02:15:27;1.60;99.90
68387;DHT22;55338;43.062;25.624;2023-03-14T02:17:53;1.60;99.90
68387;DHT22;55338;43.062;25.624;2023-03-14T02:20:30;1.40;99.90
68387;DHT22;55338;43.062;25.624;2023-03-14T02:22:57;1.50;99.90
68387;DHT22;55338;43.062;25.624;2023-03-14T02:28:01;1.40;99.90
68387;DHT22;55338;43.062;25.624;2023-03-14T02:30:29;1.40;99.90
68387;DHT22;55338;43.062;25.624;2023-03-14T02:33:00;1.40;99.90
68387;DHT22;55338;43.062;25.624;2023-03-14T02:35:34;1.40;99.90
68387;DHT22;55338;43.062;25.624;2023-03-14T02:40:35;1.30;99.90
68387;DHT22;55338;43.062;25.624;2023-03-14T02:43:01;1.40;99.90
68387;DHT22;55338;43.062;25.624;2023-03-14T02:48:04;1.20;99.90
68387;DHT22;55338;43.062;25.624;2023-03-14T02:50:33;1.20;99.90
68387;DHT22;55338;43.062;25.624;2023-03-14T02:52:59;1.10;99.90
68387;DHT22;55338;43.062;25.624;2023-03-14T02:55:25;1.10;99.90
68387;DHT22;55338;43.062;25.624;2023-03-14T02:57:52;1.10;99.90
68387;DHT22;55338;43.062;25.624;2023-03-14T03:00:19;1.20;99.90
68387;DHT22;55338;43.062;25.624;2023-03-14T03:02:45;1.30;99.90
68387;DHT22;55338;43.062;25.624;2023-03-14T03:05:11;1.30;99.90
68387;DHT22;55338;43.062;25.624;2023-03-14T03:07:37;1.30;99.90
68387;DHT22;55338;43.062;25.624;2023-03-14T03:10:04;1.30;99.90
68387;DHT22;55338;43.062;25.624;2023-03-14T03:12:30;1.40;99.90
68387;DHT22;55338;43.062;25.624;2023-03-14T03:14:55;1.40;99.90
68387;DHT22;55338;43.062;25.624;2023-03-14T03:17:21;1.50;99.90
68387;DHT22;55338;43.062;25.624;2023-03-14T03:19:47;1.50;99.90
68387;DHT22;55338;43.062;25.624;2023-03-14T03:22:12;1.50;99.90
68387;DHT22;55338;43.062;25.624;2023-03-14T03:24:38;1.50;99.90
68387;DHT22;55338;43.062;25.624;2023-03-14T03:27:04;1.40;99.90
68387;DHT22;55338;43.062;25.624;2023-03-14T03:29:30;1.30;99.90
68387;DHT22;55338;43.062;25.624;2023-03-14T03:31:56;1.20;99.90
68387;DHT22;55338;43.062;25.624;2023-03-14T03:34:22;1.10;99.90
68387;DHT22;55338;43.062;25.624;2023-03-14T03:36:47;1.10;99.90
68387;DHT22;55338;43.062;25.624;2023-03-14T03:39:13;1.00;99.90
68387;DHT22;55338;43.062;25.624;2023-03-14T03:41:39;1.10;99.90
68387;DHT22;55338;43.062;25.624;2023-03-14T03:44:04;1.10;99.90
68387;DHT22;55338;43.062;25.624;2023-03-14T03:46:31;1.20;99.90
68387;DHT22;55338;43.062;25.624;2023-03-14T03:48:58;1.10;99.90
68387;DHT22;55338;43.062;25.624;2023-03-14T03:51:25;1.00;99.90
68387;DHT22;55338;43.062;25.624;2023-03-14T03:53:51;1.00;99.90
68387;DHT22;55338;43.062;25.624;2023-03-14T03:56:17;0.90;99.90
68387;DHT22;55338;43.062;25.624;2023-03-14T03:58:43;1.00;99.90
68387;DHT22;55338;43.062;25.624;2023-03-14T04:01:09;1.00;99.90
68387;DHT22;55338;43.062;25.624;2023-03-14T04:03:36;1.00;99.90
68387;DHT22;55338;43.062;25.624;2023-03-14T04:06:09;0.90;99.90
68387;DHT22;55338;43.062;25.624;2023-03-14T04:08:36;0.90;99.90
68387;DHT22;55338;43.062;25.624;2023-03-14T04:11:03;0.90;99.90
68387;DHT22;55338;43.062;25.624;2023-03-14T04:13:29;0.80;99.90
68387;DHT22;55338;43.062;25.624;2023-03-14T04:15:55;0.90;99.90
68387;DHT22;55338;43.062;25.624;2023-03-14T04:18:22;0.70;99.90
68387;DHT22;55338;43.062;25.624;2023-03-14T04:20:54;0.80;99.90
68387;DHT22;55338;43.062;25.624;2023-03-14T04:23:21;0.70;99.90
68387;DHT22;55338;43.062;25.624;2023-03-14T04:25:50;0.70;99.90
68387;DHT22;55338;43.062;25.624;2023-03-14T04:28:16;0.70;99.90
68387;DHT22;55338;43.062;25.624;2023-03-14T04:30:42;0.80;99.90
68387;DHT22;55338;43.062;25.624;2023-03-14T04:33:08;0.80;99.90
68387;DHT22;55338;43.062;25.624;2023-03-14T04:35:34;0.80;99.90
68387;DHT22;55338;43.062;25.624;2023-03-14T04:38:00;0.80;99.90
68387;DHT22;55338;43.062;25.624;2023-03-14T04:40:26;0.70;99.90
68387;DHT22;55338;43.062;25.624;2023-03-14T04:42:52;0.70;99.90
68387;DHT22;55338;43.062;25.624;2023-03-14T04:45:17;0.70;99.90
68387;DHT22;55338;43.062;25.624;2023-03-14T04:47:43;0.70;99.90
68387;DHT22;55338;43.062;25.624;2023-03-14T04:50:10;0.70;99.90
68387;DHT22;55338;43.062;25.624;2023-03-14T04:52:36;0.80;99.90
68387;DHT22;55338;43.062;25.624;2023-03-14T04:55:02;0.90;99.90
68387;DHT22;55338;43.062;25.624;2023-03-14T04:57:28;0.90;99.90
68387;DHT22;55338;43.062;25.624;2023-03-14T04:59:53;1.00;99.90
68387;DHT22;55338;43.062;25.624;2023-03-14T05:02:19;1.10;99.90
68387;DHT22;55338;43.062;25.624;2023-03-14T05:04:45;1.20;99.90
68387;DHT22;55338;43.062;25.624;2023-03-14T05:07:10;1.40;99.90
68387;DHT22;55338;43.062;25.624;2023-03-14T05:09:36;1.50;99.90
68387;DHT22;55338;43.062;25.624;2023-03-14T05:12:02;1.60;99.90
68387;DHT22;55338;43.062;25.624;2023-03-14T05:14:28;1.70;99.90
68387;DHT22;55338;43.062;25.624;2023-03-14T05:16:54;2.00;99.90
68387;DHT22;55338;43.062;25.624;2023-03-14T05:19:19;2.20;98.80
68387;DHT22;55338;43.062;25.624;2023-03-14T05:21:45;2.40;98.10
68387;DHT22;55338;43.062;25.624;2023-03-14T05:24:11;2.30;95.60
68387;DHT22;55338;43.062;25.624;2023-03-14T05:26:36;2.00;96.30
68387;DHT22;55338;43.062;25.624;2023-03-14T05:29:02;2.10;96.40
68387;DHT22;55338;43.062;25.624;2023-03-14T05:31:28;2.10;96.50
68387;DHT22;55338;43.062;25.624;2023-03-14T05:33:53;2.30;96.50
68387;DHT22;55338;43.062;25.624;2023-03-14T05:36:19;2.40;95.80
68387;DHT22;55338;43.062;25.624;2023-03-14T05:38:45;2.70;95.20
68387;DHT22;55338;43.062;25.624;2023-03-14T05:41:11;2.80;94.10
68387;DHT22;55338;43.062;25.624;2023-03-14T05:43:36;3.10;92.70
68387;DHT22;55338;43.062;25.624;2023-03-14T05:46:03;3.30;90.70
68387;DHT22;55338;43.062;25.624;2023-03-14T05:48:30;3.40;91.50
68387;DHT22;55338;43.062;25.624;2023-03-14T05:50:58;3.50;88.90
68387;DHT22;55338;43.062;25.624;2023-03-14T05:53:25;3.50;88.30
68387;DHT22;55338;43.062;25.624;2023-03-14T05:55:54;3.60;87.30
68387;DHT22;55338;43.062;25.624;2023-03-14T05:58:21;3.80;86.50
68387;DHT22;55338;43.062;25.624;2023-03-14T06:00:47;4.20;83.40
68387;DHT22;55338;43.062;25.624;2023-03-14T06:03:13;4.30;82.10
68387;DHT22;55338;43.062;25.624;2023-03-14T06:05:39;4.60;82.60
68387;DHT22;55338;43.062;25.624;2023-03-14T06:08:05;4.70;81.00
68387;DHT22;55338;43.062;25.624;2023-03-14T06:10:31;4.80;81.30
68387;DHT22;55338;43.062;25.624;2023-03-14T06:12:57;5.10;80.50
68387;DHT22;55338;43.062;25.624;2023-03-14T06:15:23;5.30;79.20
68387;DHT22;55338;43.062;25.624;2023-03-14T06:17:48;5.70;79.10
68387;DHT22;55338;43.062;25.624;2023-03-14T06:20:14;6.00;76.90
68387;DHT22;55338;43.062;25.624;2023-03-14T06:22:40;6.30;75.00
68387;DHT22;55338;43.062;25.624;2023-03-14T06:25:08;6.70;74.30
68387;DHT22;55338;43.062;25.624;2023-03-14T06:27:33;7.30;73.40
68387;DHT22;55338;43.062;25.624;2023-03-14T06:29:59;7.70;70.40
68387;DHT22;55338;43.062;25.624;2023-03-14T06:32:25;8.20;69.60
68387;DHT22;55338;43.062;25.624;2023-03-14T06:34:51;8.70;66.00
68387;DHT22;55338;43.062;25.624;2023-03-14T06:37:18;9.10;63.80
68387;DHT22;55338;43.062;25.624;2023-03-14T06:39:43;9.40;62.20
68387;DHT22;55338;43.062;25.624;2023-03-14T06:42:10;9.90;60.00
68387;DHT22;55338;43.062;25.624;2023-03-14T06:44:35;10.40;60.10
68387;DHT22;55338;43.062;25.624;2023-03-14T06:47:01;10.90;56.20
68387;DHT22;55338;43.062;25.624;2023-03-14T06:49:27;11.20;53.50
68387;DHT22;55338;43.062;25.624;2023-03-14T06:51:53;11.20;53.00
68387;DHT22;55338;43.062;25.624;2023-03-14T06:54:20;11.20;53.00
68387;DHT22;55338;43.062;25.624;2023-03-14T06:56:46;11.30;53.20
68387;DHT22;55338;43.062;25.624;2023-03-14T06:59:11;11.70;52.60
68387;DHT22;55338;43.062;25.624;2023-03-14T07:01:37;12.10;51.00
68387;DHT22;55338;43.062;25.624;2023-03-14T07:04:03;12.60;49.40
68387;DHT22;55338;43.062;25.624;2023-03-14T07:06:29;13.20;48.30
68387;DHT22;55338;43.062;25.624;2023-03-14T07:08:55;13.70;47.30
68387;DHT22;55338;43.062;25.624;2023-03-14T07:11:22;14.20;44.40
68387;DHT22;55338;43.062;25.624;2023-03-14T07:13:48;14.50;43.60
68387;DHT22;55338;43.062;25.624;2023-03-14T07:16:13;15.00;43.10
68387;DHT22;55338;43.062;25.624;2023-03-14T07:18:39;15.00;42.70
68387;DHT22;55338;43.062;25.624;2023-03-14T07:21:06;15.40;42.80
68387;DHT22;55338;43.062;25.624;2023-03-14T07:23:33;15.80;41.50
68387;DHT22;55338;43.062;25.624;2023-03-14T07:25:59;16.00;38.50
68387;DHT22;55338;43.062;25.624;2023-03-14T07:28:25;16.20;37.20
68387;DHT22;55338;43.062;25.624;2023-03-14T07:30:53;16.30;37.30
68387;DHT22;55338;43.062;25.624;2023-03-14T07:33:19;16.40;37.40
68387;DHT22;55338;43.062;25.624;2023-03-14T07:35:47;16.90;37.50
68387;DHT22;55338;43.062;25.624;2023-03-14T07:38:14;17.40;34.30
68387;DHT22;55338;43.062;25.624;2023-03-14T07:40:39;17.60;32.60
68387;DHT22;55338;43.062;25.624;2023-03-14T07:43:06;17.70;32.80
68387;DHT22;55338;43.062;25.624;2023-03-14T07:45:31;17.90;32.50
68387;DHT22;55338;43.062;25.624;2023-03-14T07:47:57;18.30;32.60
68387;DHT22;55338;43.062;25.624;2023-03-14T07:50:27;18.60;31.60
68387;DHT22;55338;43.062;25.624;2023-03-14T07:52:54;18.70;30.30
68387;DHT22;55338;43.062;25.624;2023-03-14T07:55:21;19.10;29.70
68387;DHT22;55338;43.062;25.624;2023-03-14T07:57:47;19.20;28.90
68387;DHT22;55338;43.062;25.624;2023-03-14T08:00:13;19.50;29.70
68387;DHT22;55338;43.062;25.624;2023-03-14T08:02:45;19.90;28.00
68387;DHT22;55338;43.062;25.624;2023-03-14T08:05:10;20.00;26.50
68387;DHT22;55338;43.062;25.624;2023-03-14T08:07:36;19.70;26.20
68387;DHT22;55338;43.062;25.624;2023-03-14T08:10:04;19.70;25.90
68387;DHT22;55338;43.062;25.624;2023-03-14T08:12:30;19.90;26.10
68387;DHT22;55338;43.062;25.624;2023-03-14T08:14:56;20.20;25.90
68387;DHT22;55338;43.062;25.624;2023-03-14T08:17:22;20.30;25.50
68387;DHT22;55338;43.062;25.624;2023-03-14T08:19:48;20.50;25.30
68387;DHT22;55338;43.062;25.624;2023-03-14T08:22:14;20.80;24.70
68387;DHT22;55338;43.062;25.624;2023-03-14T08:24:39;20.60;25.00
68387;DHT22;55338;43.062;25.624;2023-03-14T08:27:06;19.80;25.20
68387;DHT22;55338;43.062;25.624;2023-03-14T08:29:32;20.10;24.50
68387;DHT22;55338;43.062;25.624;2023-03-14T08:31:58;20.70;24.30
68387;DHT22;55338;43.062;25.624;2023-03-14T08:34:24;21.00;22.60
68387;DHT22;55338;43.062;25.624;2023-03-14T08:36:49;21.00;21.20
68387;DHT22;55338;43.062;25.624;2023-03-14T08:39:15;21.10;22.10
68387;DHT22;55338;43.062;25.624;2023-03-14T08:41:41;21.60;20.80
68387;DHT22;55338;43.062;25.624;2023-03-14T08:44:09;21.90;20.70
68387;DHT22;55338;43.062;25.624;2023-03-14T08:46:37;22.30;18.40
68387;DHT22;55338;43.062;25.624;2023-03-14T08:49:03;22.20;17.80
68387;DHT22;55338;43.062;25.624;2023-03-14T08:51:29;22.40;19.30
68387;DHT22;55338;43.062;25.624;2023-03-14T08:53:55;22.80;17.60
68387;DHT22;55338;43.062;25.624;2023-03-14T08:56:20;22.70;17.20
68387;DHT22;55338;43.062;25.624;2023-03-14T08:58:46;22.30;17.80
68387;DHT22;55338;43.062;25.624;2023-03-14T09:01:14;22.00;18.30
68387;DHT22;55338;43.062;25.624;2023-03-14T09:03:40;21.80;17.30
68387;DHT22;55338;43.062;25.624;2023-03-14T09:06:08;22.00;17.60
68387;DHT22;55338;43.062;25.624;2023-03-14T09:08:34;22.10;17.50
68387;DHT22;55338;43.062;25.624;2023-03-14T09:11:00;21.80;17.20
68387;DHT22;55338;43.062;25.624;2023-03-14T09:13:26;22.10;17.40
68387;DHT22;55338;43.062;25.624;2023-03-14T09:15:53;22.20;17.70
68387;DHT22;55338;43.062;25.624;2023-03-14T09:18:19;22.70;18.30
68387;DHT22;55338;43.062;25.624;2023-03-14T09:20:45;23.00;16.20
68387;DHT22;55338;43.062;25.624;2023-03-14T09:23:11;23.40;16.50
68387;DHT22;55338;43.062;25.624;2023-03-14T09:25:36;23.80;15.60
68387;DHT22;55338;43.062;25.624;2023-03-14T09:28:03;23.70;14.80
68387;DHT22;55338;43.062;25.624;2023-03-14T09:30:29;23.80;16.70
68387;DHT22;55338;43.062;25.624;2023-03-14T09:32:54;24.60;15.80
68387;DHT22;55338;43.062;25.624;2023-03-14T09:35:20;24.50;13.10
68387;DHT22;55338;43.062;25.624;2023-03-14T09:37:46;24.90;14.40
68387;DHT22;55338;43.062;25.624;2023-03-14T09:40:14;24.80;15.30
68387;DHT22;55338;43.062;25.624;2023-03-14T09:42:41;23.80;14.30
68387;DHT22;55338;43.062;25.624;2023-03-14T09:45:13;23.60;16.10
68387;DHT22;55338;43.062;25.624;2023-03-14T09:47:40;23.80;15.60
68387;DHT22;55338;43.062;25.624;2023-03-14T09:50:13;24.20;14.40
68387;DHT22;55338;43.062;25.624;2023-03-14T09:53:03;24.40;13.70
68387;DHT22;55338;43.062;25.624;2023-03-14T09:55:27;23.90;14.60
68387;DHT22;55338;43.062;25.624;2023-03-14T09:57:59;23.10;15.20
68387;DHT22;55338;43.062;25.624;2023-03-14T10:00:29;23.00;16.40
68387;DHT22;55338;43.062;25.624;2023-03-14T10:05:42;23.10;15.70
68387;DHT22;55338;43.062;25.624;2023-03-14T10:08:12;23.90;15.30
68387;DHT22;55338;43.062;25.624;2023-03-14T10:10:39;24.10;15.70
68387;DHT22;55338;43.062;25.624;2023-03-14T10:13:18;24.40;15.10
68387;DHT22;55338;43.062;25.624;2023-03-14T10:15:51;24.70;15.10
68387;DHT22;55338;43.062;25.624;2023-03-14T10:18:17;25.00;14.30
68387;DHT22;55338;43.062;25.624;2023-03-14T10:20:47;24.30;14.90
68387;DHT22;55338;43.062;25.624;2023-03-14T10:28:32;24.40;15.80
68387;DHT22;55338;43.062;25.624;2023-03-14T10:30:59;25.20;14.10
68387;DHT22;55338;43.062;25.624;2023-03-14T10:33:30;25.40;12.20
68387;DHT22;55338;43.062;25.624;2023-03-14T10:38:27;25.30;10.90
68387;DHT22;55338;43.062;25.624;2023-03-14T10:40:55;25.20;11.10
68387;DHT22;55338;43.062;25.624;2023-03-14T10:43:40;25.20;11.00
68387;DHT22;55338;43.062;25.624;2023-03-14T10:46:14;25.20;12.30
68387;DHT22;55338;43.062;25.624;2023-03-14T10:48:41;25.80;11.20
68387;DHT22;55338;43.062;25.624;2023-03-14T10:51:11;25.80;11.50
68387;DHT22;55338;43.062;25.624;2023-03-14T10:56:36;25.30;11.30
68387;DHT22;55338;43.062;25.624;2023-03-14T10:59:04;25.20;12.90
68387;DHT22;55338;43.062;25.624;2023-03-14T11:09:43;25.40;12.90
68387;DHT22;55338;43.062;25.624;2023-03-14T11:12:39;24.90;13.30
68387;DHT22;55338;43.062;25.624;2023-03-14T11:15:17;24.10;13.20
68387;DHT22;55338;43.062;25.624;2023-03-14T11:18:07;24.30;13.30
68387;DHT22;55338;43.062;25.624;2023-03-14T11:23:14;25.60;12.00
68387;DHT22;55338;43.062;25.624;2023-03-14T11:26:05;25.60;12.40
68387;DHT22;55338;43.062;25.624;2023-03-14T11:28:47;26.00;12.30
68387;DHT22;55338;43.062;25.624;2023-03-14T11:31:26;26.00;12.90
68387;DHT22;55338;43.062;25.624;2023-03-14T11:34:25;26.60;12.90
68387;DHT22;55338;43.062;25.624;2023-03-14T11:39:17;25.60;13.50
68387;DHT22;55338;43.062;25.624;2023-03-14T11:41:46;25.40;13.40
68387;DHT22;55338;43.062;25.624;2023-03-14T11:44:30;25.40;13.00
68387;DHT22;55338;43.062;25.624;2023-03-14T11:47:21;26.00;14.90
68387;DHT22;55338;43.062;25.624;2023-03-14T11:50:14;25.50;12.80
68387;DHT22;55338;43.062;25.624;2023-03-14T11:53:03;25.70;12.10
68387;DHT22;55338;43.062;25.624;2023-03-14T11:55:33;25.70;11.80
68387;DHT22;55338;43.062;25.624;2023-03-14T11:58:30;25.80;12.30
68387;DHT22;55338;43.062;25.624;2023-03-14T12:00:57;25.70;13.50
68387;DHT22;55338;43.062;25.624;2023-03-14T12:06:48;25.20;13.10
68387;DHT22;55338;43.062;25.624;2023-03-14T12:09:17;25.10;14.40
68387;DHT22;55338;43.062;25.624;2023-03-14T12:11:48;24.90;15.60
68387;DHT22;55338;43.062;25.624;2023-03-14T12:17:05;24.80;15.50
68387;DHT22;55338;43.062;25.624;2023-03-14T12:19:37;25.40;15.70
68387;DHT22;55338;43.062;25.624;2023-03-14T12:25:15;24.50;16.30
68387;DHT22;55338;43.062;25.624;2023-03-14T12:35:45;26.40;16.40
68387;DHT22;55338;43.062;25.624;2023-03-14T12:43:32;26.00;15.30
68387;DHT22;55338;43.062;25.624;2023-03-14T12:46:09;25.20;15.70
68387;DHT22;55338;43.062;25.624;2023-03-14T12:48:40;25.20;15.70
68387;DHT22;55338;43.062;25.624;2023-03-14T12:51:17;25.50;15.10
68387;DHT22;55338;43.062;25.624;2023-03-14T12:56:21;25.50;17.10
68387;DHT22;55338;43.062;25.624;2023-03-14T12:59:17;25.20;17.60
68387;DHT22;55338;43.062;25.624;2023-03-14T13:01:54;25.20;17.60
68387;DHT22;55338;43.062;25.624;2023-03-14T13:04:34;25.40;17.80
68387;DHT22;55338;43.062;25.624;2023-03-14T13:07:01;25.70;16.70
68387;DHT22;55338;43.062;25.624;2023-03-14T13:11:53;25.20;17.50
68387;DHT22;55338;43.062;25.624;2023-03-14T13:14:19;25.00;18.20
68387;DHT22;55338;43.062;25.624;2023-03-14T13:16:46;24.60;18.70
68387;DHT22;55338;43.062;25.624;2023-03-14T13:19:19;24.60;18.80
68387;DHT22;55338;43.062;25.624;2023-03-14T13:21:47;24.60;18.80
68387;DHT22;55338;43.062;25.624;2023-03-14T13:24:24;25.10;20.20
68387;DHT22;55338;43.062;25.624;2023-03-14T13:26:53;25.20;18.30
68387;DHT22;55338;43.062;25.624;2023-03-14T13:31:52;24.40;18.80
68387;DHT22;55338;43.062;25.624;2023-03-14T13:34:18;24.30;19.10
68387;DHT22;55338;43.062;25.624;2023-03-14T13:36:44;24.50;19.20
68387;DHT22;55338;43.062;25.624;2023-03-14T13:39:13;24.90;18.50
68387;DHT22;55338;43.062;25.624;2023-03-14T13:41:41;25.10;18.30
68387;DHT22;55338;43.062;25.624;2023-03-14T13:44:13;25.00;17.90
68387;DHT22;55338;43.062;25.624;2023-03-14T13:46:40;24.90;18.60
68387;DHT22;55338;43.062;25.624;2023-03-14T13:49:11;25.00;18.50
68387;DHT22;55338;43.062;25.624;2023-03-14T13:51:39;25.20;18.70
68387;DHT22;55338;43.062;25.624;2023-03-14T13:54:14;25.20;18.00
68387;DHT22;55338;43.062;25.624;2023-03-14T13:56:40;25.60;18.40
68387;DHT22;55338;43.062;25.624;2023-03-14T13:59:28;25.50;18.60
68387;DHT22;55338;43.062;25.624;2023-03-14T14:01:54;25.30;18.40
68387;DHT22;55338;43.062;25.624;2023-03-14T14:04:22;24.80;19.30
68387;DHT22;55338;43.062;25.624;2023-03-14T14:06:56;24.70;19.20
68387;DHT22;55338;43.062;25.624;2023-03-14T14:12:31;24.10;20.20
68387;DHT22;55338;43.062;25.624;2023-03-14T14:15:02;23.80;20.90
68387;DHT22;55338;43.062;25.624;2023-03-14T14:17:46;23.80;20.50
68387;DHT22;55338;43.062;25.624;2023-03-14T14:20:22;24.20;20.30
68387;DHT22;55338;43.062;25.624;2023-03-14T14:22:50;24.40;20.20
68387;DHT22;55338;43.062;25.624;2023-03-14T14:25:17;24.50;19.70
68387;DHT22;55338;43.062;25.624;2023-03-14T14:27:47;24.80;19.00
68387;DHT22;55338;43.062;25.624;2023-03-14T14:30:33;24.20;20.00
68387;DHT22;55338;43.062;25.624;2023-03-14T14:36:44;22.00;23.20
68387;DHT22;55338;43.062;25.624;2023-03-14T14:39:26;21.30;24.60
68387;DHT22;55338;43.062;25.624;2023-03-14T14:41:53;20.70;25.40
68387;DHT22;55338;43.062;25.624;2023-03-14T14:44:32;20.20;26.40
68387;DHT22;55338;43.062;25.624;2023-03-14T14:47:01;19.80;27.40
68387;DHT22;55338;43.062;25.624;2023-03-14T14:49:32;19.50;27.80
68387;DHT22;55338;43.062;25.624;2023-03-14T14:52:08;19.10;28.40
68387;DHT22;55338;43.062;25.624;2023-03-14T14:54:43;18.80;29.10
68387;DHT22;55338;43.062;25.624;2023-03-14T14:57:22;18.40;29.70
68387;DHT22;55338;43.062;25.624;2023-03-14T14:59:50;18.30;30.00
68387;DHT22;55338;43.062;25.624;2023-03-14T15:02:39;18.10;30.20
68387;DHT22;55338;43.062;25.624;2023-03-14T15:05:21;17.80;30.70
68387;DHT22;55338;43.062;25.624;2023-03-14T15:07:47;17.60;31.00
68387;DHT22;55338;43.062;25.624;2023-03-14T15:10:16;17.50;31.40
68387;DHT22;55338;43.062;25.624;2023-03-14T15:12:42;17.30;32.20
68387;DHT22;55338;43.062;25.624;2023-03-14T15:15:09;17.20;32.00
68387;DHT22;55338;43.062;25.624;2023-03-14T15:17:35;17.00;32.10
68387;DHT22;55338;43.062;25.624;2023-03-14T15:20:03;16.90;32.70
68387;DHT22;55338;43.062;25.624;2023-03-14T15:22:30;16.70;32.80
68387;DHT22;55338;43.062;25.624;2023-03-14T15:24:56;16.50;33.10
68387;DHT22;55338;43.062;25.624;2023-03-14T15:27:22;16.50;33.10
68387;DHT22;55338;43.062;25.624;2023-03-14T15:29:48;16.40;33.30
68387;DHT22;55338;43.062;25.624;2023-03-14T15:32:15;16.30;33.80
68387;DHT22;55338;43.062;25.624;2023-03-14T15:34:43;16.10;33.90
68387;DHT22;55338;43.062;25.624;2023-03-14T15:37:11;16.10;34.00
68387;DHT22;55338;43.062;25.624;2023-03-14T15:39:39;15.90;34.30
68387;DHT22;55338;43.062;25.624;2023-03-14T15:42:05;15.80;35.10
68387;DHT22;55338;43.062;25.624;2023-03-14T15:44:31;15.70;35.00
68387;DHT22;55338;43.062;25.624;2023-03-14T15:46:57;15.60;34.90
68387;DHT22;55338;43.062;25.624;2023-03-14T15:49:23;15.60;34.80
68387;DHT22;55338;43.062;25.624;2023-03-14T15:51:49;15.40;34.80
68387;DHT22;55338;43.062;25.624;2023-03-14T15:54:14;15.30;35.30
68387;DHT22;55338;43.062;25.624;2023-03-14T15:56:40;15.20;35.50
68387;DHT22;55338;43.062;25.624;2023-03-14T15:59:06;15.10;35.20
68387;DHT22;55338;43.062;25.624;2023-03-14T16:01:32;14.90;35.40
68387;DHT22;55338;43.062;25.624;2023-03-14T16:03:57;14.90;35.70
68387;DHT22;55338;43.062;25.624;2023-03-14T16:06:23;14.80;36.00
68387;DHT22;55338;43.062;25.624;2023-03-14T16:08:49;15.40;36.60
68387;DHT22;55338;43.062;25.624;2023-03-14T16:11:15;14.60;36.00
68387;DHT22;55338;43.062;25.624;2023-03-14T16:13:43;14.60;36.30
68387;DHT22;55338;43.062;25.624;2023-03-14T16:16:09;14.50;36.30
68387;DHT22;55338;43.062;25.624;2023-03-14T16:18:39;14.40;36.30
68387;DHT22;55338;43.062;25.624;2023-03-14T16:21:08;14.30;36.70
68387;DHT22;55338;43.062;25.624;2023-03-14T16:23:35;14.20;37.00
68387;DHT22;55338;43.062;25.624;2023-03-14T16:26:06;14.10;37.80
68387;DHT22;55338;43.062;25.624;2023-03-14T16:28:33;14.00;37.50
68387;DHT22;55338;43.062;25.624;2023-03-14T16:31:03;13.90;37.50
68387;DHT22;55338;43.062;25.624;2023-03-14T16:33:30;13.80;37.60
68387;DHT22;55338;43.062;25.624;2023-03-14T16:35:57;13.80;37.40
68387;DHT22;55338;43.062;25.624;2023-03-14T16:38:26;13.70;37.50
68387;DHT22;55338;43.062;25.624;2023-03-14T16:40:56;13.60;37.50
68387;DHT22;55338;43.062;25.624;2023-03-14T16:43:23;13.50;38.10